createdAt,value
2022-11-29T00:02:07.070Z,6.77
2022-11-29T00:04:33.731Z,6.80
2022-11-29T00:07:00.144Z,6.74
2022-11-29T00:09:27.430Z,6.79
2022-11-29T00:12:12.233Z,6.82
2022-11-29T00:14:39.773Z,6.83
2022-11-29T00:17:06.593Z,6.84
2022-11-29T00:19:35.600Z,6.84
2022-11-29T00:22:02.652Z,6.82
2022-11-29T00:24:31.578Z,6.82
2022-11-29T00:26:58.309Z,6.83
2022-11-29T00:29:25.483Z,6.86
2022-11-29T00:31:51.892Z,6.84
2022-11-29T00:34:20.546Z,6.87
2022-11-29T00:36:47.248Z,6.87
2022-11-29T00:39:13.792Z,6.88
2022-11-29T00:41:40.411Z,6.91
2022-11-29T00:44:06.923Z,6.88
2022-11-29T00:46:33.717Z,6.90
2022-11-29T00:49:00.211Z,6.92
2022-11-29T00:51:26.718Z,6.92
2022-11-29T00:53:53.135Z,6.90
2022-11-29T00:56:19.668Z,6.85
2022-11-29T00:58:46.252Z,6.84
2022-11-29T01:01:12.735Z,6.82
2022-11-29T01:03:39.412Z,6.89
2022-11-29T01:06:09.897Z,6.87
2022-11-29T01:08:42.242Z,6.84
2022-11-29T01:11:13.905Z,6.78
2022-11-29T01:13:41.157Z,6.78
2022-11-29T01:16:08.405Z,6.84
2022-11-29T01:18:35.465Z,6.84
2022-11-29T01:21:08.986Z,6.86
2022-11-29T01:23:36.052Z,6.89
2022-11-29T01:26:06.177Z,6.90
2022-11-29T01:28:34.032Z,6.87
2022-11-29T01:31:09.046Z,6.94
2022-11-29T01:33:36.234Z,6.89
2022-11-29T01:36:04.486Z,6.87
2022-11-29T01:38:30.929Z,6.86
2022-11-29T01:41:09.512Z,6.80
2022-11-29T01:44:13.094Z,6.81
2022-11-29T01:46:45.454Z,6.83
2022-11-29T01:49:16.488Z,6.74
2022-11-29T01:51:52.415Z,6.77
2022-11-29T01:54:20.152Z,6.78
2022-11-29T01:56:50.239Z,6.82
2022-11-29T01:59:20.722Z,6.83
2022-11-29T02:01:47.680Z,6.85
2022-11-29T02:04:15.302Z,6.89
2022-11-29T02:06:42.862Z,6.88
2022-11-29T02:09:19.606Z,6.89
2022-11-29T02:11:57.700Z,6.86
2022-11-29T02:14:38.263Z,6.85
2022-11-29T02:17:36.964Z,6.78
2022-11-29T02:20:51.402Z,6.78
2022-11-29T02:23:50.924Z,6.76
2022-11-29T02:26:39.171Z,6.73
2022-11-29T02:29:36.721Z,6.71
2022-11-29T02:32:20.572Z,6.68
2022-11-29T02:35:02.131Z,6.66
2022-11-29T02:37:38.510Z,6.61
2022-11-29T02:40:24.875Z,6.62
2022-11-29T02:43:06.513Z,6.55
2022-11-29T02:46:03.216Z,6.53
2022-11-29T02:48:44.680Z,6.48
2022-11-29T02:51:22.499Z,6.50
2022-11-29T02:53:55.938Z,6.46
2022-11-29T02:56:52.185Z,6.51
2022-11-29T02:59:32.594Z,6.52
2022-11-29T03:02:14.565Z,6.59
2022-11-29T03:04:50.089Z,6.61
2022-11-29T03:07:37.899Z,6.63
2022-11-29T03:10:36.392Z,6.65
2022-11-29T03:13:08.470Z,6.66
2022-11-29T03:15:50.748Z,6.67
2022-11-29T03:18:34.724Z,6.70
2022-11-29T03:21:34.543Z,6.71
2022-11-29T03:24:13.740Z,6.69
2022-11-29T03:26:45.574Z,6.70
2022-11-29T03:29:23.019Z,6.72
2022-11-29T03:31:49.617Z,6.71
2022-11-29T03:34:31.820Z,6.70
2022-11-29T03:37:06.993Z,6.70
2022-11-29T03:39:38.132Z,6.70
2022-11-29T03:42:11.024Z,6.66
2022-11-29T03:44:50.147Z,6.67
2022-11-29T03:47:23.657Z,6.68
2022-11-29T03:50:01.550Z,6.72
2022-11-29T03:52:43.157Z,6.73
2022-11-29T03:55:21.774Z,6.72
2022-11-29T03:58:00.295Z,6.65
2022-11-29T04:00:34.027Z,6.68
2022-11-29T04:03:37.742Z,6.69
2022-11-29T04:06:19.502Z,6.72
2022-11-29T04:08:57.326Z,6.78
2022-11-29T04:11:35.690Z,6.76
2022-11-29T04:14:08.055Z,6.78
2022-11-29T04:16:54.481Z,6.68
2022-11-29T04:19:58.284Z,6.77
2022-11-29T04:22:54.523Z,6.78
2022-11-29T04:25:39.759Z,6.74
2022-11-29T04:28:12.140Z,6.74
2022-11-29T04:31:14.899Z,6.74
2022-11-29T04:33:53.504Z,6.72
2022-11-29T04:36:48.735Z,6.75
2022-11-29T04:39:26.068Z,6.80
2022-11-29T04:42:20.098Z,6.76
2022-11-29T04:44:55.760Z,6.66
2022-11-29T04:48:02.910Z,6.70
2022-11-29T04:50:39.301Z,6.70
2022-11-29T04:53:40.943Z,6.71
2022-11-29T04:56:21.441Z,6.72
2022-11-29T04:58:59.190Z,6.73
2022-11-29T05:01:53.816Z,6.77
2022-11-29T05:04:43.737Z,6.76
2022-11-29T05:07:39.515Z,6.79
2022-11-29T05:10:05.930Z,6.83
2022-11-29T05:12:53.530Z,6.83
2022-11-29T05:15:56.851Z,6.87
2022-11-29T05:18:45.120Z,6.92
2022-11-29T05:21:27.343Z,6.95
2022-11-29T05:23:53.756Z,6.87
2022-11-29T05:26:32.375Z,6.76
2022-11-29T05:29:05.696Z,6.81
2022-11-29T05:31:41.458Z,6.87
2022-11-29T05:34:34.856Z,6.83
2022-11-29T05:37:35.245Z,6.84
2022-11-29T05:40:39.388Z,6.85
2022-11-29T05:43:34.703Z,6.86
2022-11-29T05:46:19.588Z,6.91
2022-11-29T05:49:17.888Z,6.93
2022-11-29T05:52:15.047Z,7.00
2022-11-29T05:54:58.994Z,7.00
2022-11-29T05:57:57.537Z,7.06
2022-11-29T06:00:26.856Z,7.04
2022-11-29T06:03:03.710Z,7.06
2022-11-29T06:05:42.781Z,7.06
2022-11-29T06:08:31.625Z,7.03
2022-11-29T06:11:21.723Z,7.04
2022-11-29T06:14:20.589Z,7.00
2022-11-29T06:17:11.789Z,6.97
2022-11-29T06:20:11.057Z,6.95
2022-11-29T06:22:48.903Z,6.97
2022-11-29T06:25:48.418Z,6.96
2022-11-29T06:28:49.902Z,7.00
2022-11-29T06:31:27.012Z,6.96
2022-11-29T06:34:00.881Z,6.97
2022-11-29T06:36:36.203Z,7.03
2022-11-29T06:39:02.959Z,7.02
2022-11-29T06:41:29.705Z,7.08
2022-11-29T06:43:56.669Z,7.16
2022-11-29T06:46:26.655Z,7.09
2022-11-29T06:49:19.300Z,7.07
2022-11-29T06:52:12.192Z,7.02
2022-11-29T06:55:01.334Z,6.99
2022-11-29T06:57:53.844Z,7.00
2022-11-29T07:00:46.572Z,6.99
2022-11-29T07:03:18.918Z,6.98
2022-11-29T07:05:46.521Z,6.99
2022-11-29T07:08:19.021Z,6.97
2022-11-29T07:10:49.661Z,7.05
2022-11-29T07:13:17.872Z,7.06
2022-11-29T07:16:06.765Z,7.04
2022-11-29T07:18:44.643Z,6.91
2022-11-29T07:21:32.545Z,6.89
2022-11-29T07:24:37.336Z,6.89
2022-11-29T07:27:26.494Z,7.01
2022-11-29T07:30:09.604Z,7.10
2022-11-29T07:33:05.529Z,7.06
2022-11-29T07:35:46.198Z,7.06
2022-11-29T07:38:27.061Z,7.14
2022-11-29T07:41:26.979Z,7.17
2022-11-29T07:44:05.326Z,7.19
2022-11-29T07:46:32.130Z,7.30
2022-11-29T07:48:58.553Z,7.36
2022-11-29T07:51:25.731Z,7.46
2022-11-29T07:53:52.218Z,7.51
2022-11-29T07:56:18.703Z,7.54
2022-11-29T07:58:45.311Z,7.60
2022-11-29T08:01:11.901Z,7.66
2022-11-29T08:03:38.473Z,7.62
2022-11-29T08:06:05.046Z,7.65
2022-11-29T08:08:31.579Z,7.75
2022-11-29T08:10:58.012Z,7.79
2022-11-29T08:13:24.596Z,7.75
2022-11-29T08:15:51.062Z,7.85
2022-11-29T08:18:17.771Z,7.91
2022-11-29T08:20:46.250Z,8.01
2022-11-29T08:23:13.765Z,8.05
2022-11-29T08:25:40.316Z,8.11
2022-11-29T08:28:06.877Z,8.11
2022-11-29T08:30:33.560Z,8.13
2022-11-29T08:33:00.234Z,8.15
2022-11-29T08:35:26.764Z,8.16
2022-11-29T08:37:54.052Z,8.20
2022-11-29T08:40:20.429Z,8.20
2022-11-29T08:42:46.982Z,8.20
2022-11-29T08:45:14.738Z,8.27
2022-11-29T08:47:42.328Z,8.33
2022-11-29T08:50:15.824Z,8.25
2022-11-29T08:53:06.508Z,8.27
2022-11-29T08:55:39.974Z,8.34
2022-11-29T08:58:08.950Z,8.39
2022-11-29T09:00:36.788Z,8.39
2022-11-29T09:03:23.425Z,8.43
2022-11-29T09:05:50.296Z,8.46
2022-11-29T09:08:16.973Z,8.50
2022-11-29T09:10:43.786Z,8.54
2022-11-29T09:13:11.074Z,8.54
2022-11-29T09:15:39.241Z,8.55
2022-11-29T09:18:05.994Z,8.55
2022-11-29T09:20:33.300Z,8.53
2022-11-29T09:23:00.559Z,8.53
2022-11-29T09:25:27.652Z,8.56
2022-11-29T09:27:54.493Z,8.57
2022-11-29T09:30:23.777Z,8.52
2022-11-29T09:32:50.521Z,8.59
2022-11-29T09:35:17.565Z,8.69
2022-11-29T09:37:44.102Z,8.68
2022-11-29T09:40:37.427Z,8.60
2022-11-29T09:43:23.659Z,8.48
2022-11-29T09:46:03.076Z,8.43
2022-11-29T09:48:44.735Z,8.44
2022-11-29T09:51:28.007Z,8.53
2022-11-29T09:54:46.050Z,8.74
2022-11-29T09:57:14.151Z,8.73
2022-11-29T09:59:48.697Z,8.80
2022-11-29T10:02:21.803Z,8.79
2022-11-29T10:05:01.472Z,8.83
2022-11-29T10:07:46.288Z,8.80
2022-11-29T10:10:22.788Z,8.84
2022-11-29T10:12:56.455Z,8.88
2022-11-29T10:15:27.787Z,8.97
2022-11-29T10:18:03.270Z,8.94
2022-11-29T10:20:39.164Z,8.97
2022-11-29T10:23:21.160Z,9.00
2022-11-29T10:25:50.448Z,8.96
2022-11-29T10:28:20.833Z,8.97
2022-11-29T10:30:48.168Z,8.95
2022-11-29T10:33:26.953Z,9.01
2022-11-29T10:35:59.087Z,8.98
2022-11-29T10:38:33.019Z,9.00
2022-11-29T10:41:13.474Z,9.01
2022-11-29T10:43:43.086Z,8.99
2022-11-29T10:46:18.262Z,8.96
2022-11-29T10:48:44.726Z,8.96
2022-11-29T10:51:18.124Z,8.91
2022-11-29T10:53:46.652Z,8.86
2022-11-29T10:56:31.121Z,8.81
2022-11-29T10:59:00.301Z,8.81
2022-11-29T11:01:28.994Z,8.81
2022-11-29T11:03:57.853Z,8.80
2022-11-29T11:06:42.446Z,8.91
2022-11-29T11:09:24.903Z,8.67
2022-11-29T11:11:57.811Z,8.90
2022-11-29T11:14:28.795Z,8.72
2022-11-29T11:16:55.594Z,8.93
2022-11-29T11:19:28.434Z,9.08
2022-11-29T11:21:56.972Z,9.19
2022-11-29T11:24:41.940Z,9.36
2022-11-29T11:27:08.455Z,9.33
2022-11-29T11:29:40.990Z,9.43
2022-11-29T11:32:19.462Z,9.48
2022-11-29T11:34:58.066Z,9.52
2022-11-29T11:37:30.218Z,9.61
2022-11-29T11:40:00.243Z,9.63
2022-11-29T11:42:40.332Z,9.67
2022-11-29T11:45:10.134Z,9.69
2022-11-29T11:47:42.822Z,9.71
2022-11-29T11:50:36.931Z,9.77
2022-11-29T11:53:06.967Z,9.77
2022-11-29T11:55:37.695Z,9.73
2022-11-29T11:58:13.058Z,9.64
2022-11-29T12:01:04.809Z,9.58
2022-11-29T12:03:45.749Z,9.48
2022-11-29T12:06:31.706Z,9.44
2022-11-29T12:09:33.468Z,9.43
2022-11-29T12:12:25.333Z,9.33
2022-11-29T12:15:04.038Z,9.31
2022-11-29T12:18:13.577Z,9.23
2022-11-29T12:21:03.460Z,9.10
2022-11-29T12:23:45.062Z,9.19
2022-11-29T12:26:13.707Z,9.25
2022-11-29T12:28:46.607Z,9.21
2022-11-29T12:31:16.214Z,9.13
2022-11-29T12:33:57.856Z,9.14
2022-11-29T12:36:43.672Z,9.19
2022-11-29T12:39:23.717Z,9.26
2022-11-29T12:42:06.771Z,9.17
2022-11-29T12:44:52.619Z,9.17
2022-11-29T12:47:38.162Z,9.26
2022-11-29T12:50:46.586Z,9.30
2022-11-29T12:53:28.281Z,9.35
2022-11-29T12:56:16.242Z,9.43
2022-11-29T12:58:49.839Z,9.47
2022-11-29T13:01:51.201Z,9.41
2022-11-29T13:04:29.601Z,9.37
2022-11-29T13:07:03.275Z,9.48
2022-11-29T13:09:50.790Z,9.43
2022-11-29T13:12:36.573Z,9.48
2022-11-29T13:15:35.535Z,9.36
2022-11-29T13:18:18.038Z,9.38
2022-11-29T13:20:52.301Z,9.39
2022-11-29T13:24:07.801Z,9.28
2022-11-29T13:26:34.019Z,9.28
2022-11-29T13:29:02.450Z,9.28
2022-11-29T13:31:29.937Z,9.28
2022-11-29T13:33:56.438Z,9.21
2022-11-29T13:36:28.898Z,9.26
2022-11-29T13:39:10.441Z,9.41
2022-11-29T13:41:49.022Z,9.43
2022-11-29T13:44:27.798Z,9.46
2022-11-29T13:47:15.722Z,9.52
2022-11-29T13:49:58.011Z,9.57
2022-11-29T13:52:42.505Z,9.43
2022-11-29T13:55:12.020Z,9.56
2022-11-29T14:00:44.749Z,9.69
2022-11-29T14:03:26.651Z,9.76
2022-11-29T14:06:13.380Z,9.83
2022-11-29T14:09:19.421Z,9.85
2022-11-29T14:12:01.742Z,9.80
2022-11-29T14:14:34.073Z,9.79
2022-11-29T14:17:06.180Z,9.74
2022-11-29T14:19:34.549Z,9.76
2022-11-29T14:22:01.840Z,9.77
2022-11-29T14:24:37.806Z,9.79
2022-11-29T14:27:07.262Z,9.78
2022-11-29T14:29:55.213Z,9.79
2022-11-29T14:32:34.505Z,9.76
2022-11-29T14:35:09.704Z,9.52
2022-11-29T14:38:13.781Z,9.56
2022-11-29T14:40:40.327Z,9.48
2022-11-29T14:43:34.009Z,9.38
2022-11-29T14:46:31.618Z,9.25
2022-11-29T14:49:03.690Z,9.04
2022-11-29T14:51:32.753Z,9.08
2022-11-29T14:54:15.583Z,8.97
2022-11-29T14:56:45.314Z,9.07
2022-11-29T14:59:51.567Z,8.94
2022-11-29T15:02:32.618Z,8.87
2022-11-29T15:05:13.239Z,8.70
2022-11-29T15:07:44.664Z,8.72
2022-11-29T15:10:34.994Z,8.66
2022-11-29T15:13:03.918Z,8.66
2022-11-29T15:15:38.719Z,8.42
2022-11-29T15:18:26.653Z,8.43
2022-11-29T15:21:25.318Z,8.23
2022-11-29T15:24:01.564Z,8.18
2022-11-29T15:26:28.436Z,8.15
2022-11-29T15:29:13.340Z,8.16
2022-11-29T15:31:42.163Z,8.12
2022-11-29T15:34:29.075Z,8.04
2022-11-29T15:36:55.548Z,7.89
2022-11-29T15:39:26.557Z,7.85
2022-11-29T15:41:53.288Z,7.68
2022-11-29T15:44:22.380Z,7.62
2022-11-29T15:46:48.881Z,7.62
2022-11-29T15:49:34.049Z,7.60
2022-11-29T15:52:07.744Z,7.60
2022-11-29T15:54:41.988Z,7.57
2022-11-29T15:57:15.909Z,7.54
2022-11-29T15:59:52.932Z,7.40
2022-11-29T16:02:21.684Z,7.23
2022-11-29T16:04:51.205Z,7.20
2022-11-29T16:07:19.795Z,7.13
2022-11-29T16:09:54.773Z,6.93
2022-11-29T16:12:21.238Z,6.73
2022-11-29T16:14:56.903Z,6.76
2022-11-29T16:17:31.936Z,6.99
2022-11-29T16:20:13.513Z,7.01
2022-11-29T16:22:39.966Z,7.15
2022-11-29T16:25:15.868Z,7.18
2022-11-29T16:27:43.009Z,7.35
2022-11-29T16:30:24.254Z,7.27
2022-11-29T16:32:55.339Z,7.15
2022-11-29T16:35:28.035Z,7.41
2022-11-29T16:37:54.752Z,7.55
2022-11-29T16:40:35.458Z,7.47
2022-11-29T16:43:21.029Z,7.19
2022-11-29T16:45:47.734Z,7.27
2022-11-29T16:48:29.418Z,7.11
2022-11-29T16:51:10.901Z,6.99
2022-11-29T16:53:42.715Z,6.80
2022-11-29T16:56:14.322Z,6.80
2022-11-29T16:59:20.928Z,6.72
2022-11-29T17:01:31.510Z,6.67
2022-11-29T17:03:59.881Z,6.62
2022-11-29T17:06:27.987Z,6.41
2022-11-29T17:08:56.284Z,6.42
2022-11-29T17:11:23.281Z,6.39
2022-11-29T17:13:50.852Z,6.47
2022-11-29T17:16:20.159Z,6.56
2022-11-29T17:18:47.166Z,6.65
2022-11-29T17:21:31.590Z,6.65
2022-11-29T17:23:58.037Z,6.53
2022-11-29T17:26:24.495Z,6.47
2022-11-29T17:28:52.242Z,6.41
2022-11-29T17:31:21.639Z,6.41
2022-11-29T17:33:48.500Z,6.54
2022-11-29T17:36:17.513Z,6.56
2022-11-29T17:38:45.531Z,6.67
2022-11-29T17:41:14.663Z,6.75
2022-11-29T17:43:41.790Z,6.77
2022-11-29T17:46:12.603Z,6.76
2022-11-29T17:48:39.257Z,6.79
2022-11-29T17:51:17.454Z,6.82
2022-11-29T17:53:50.039Z,6.86
2022-11-29T17:56:19.455Z,6.91
2022-11-29T17:58:46.021Z,6.90
2022-11-29T18:01:15.101Z,7.02
2022-11-29T18:03:43.353Z,7.13
2022-11-29T18:06:19.621Z,7.15
2022-11-29T18:08:50.934Z,7.21
2022-11-29T18:11:20.498Z,7.13
2022-11-29T18:13:47.542Z,7.09
2022-11-29T18:16:17.129Z,7.09
2022-11-29T18:18:44.586Z,7.06
2022-11-29T18:21:12.531Z,6.99
2022-11-29T18:23:43.292Z,6.97
2022-11-29T18:26:15.634Z,6.91
2022-11-29T18:28:43.636Z,6.80
2022-11-29T18:31:12.909Z,6.68
2022-11-29T18:33:41.353Z,6.66
2022-11-29T18:36:12.504Z,6.72
2022-11-29T18:38:40.577Z,6.81
2022-11-29T18:41:21.216Z,6.97
2022-11-29T18:43:48.871Z,6.87
2022-11-29T18:46:19.009Z,6.81
2022-11-29T18:48:47.274Z,6.86
2022-11-29T18:51:16.524Z,6.96
2022-11-29T18:53:44.056Z,6.80
2022-11-29T18:56:16.707Z,6.86
2022-11-29T18:58:44.730Z,6.74
2022-11-29T19:01:14.777Z,6.77
2022-11-29T19:03:44.579Z,6.62
2022-11-29T19:06:16.750Z,6.45
2022-11-29T19:08:43.479Z,6.32
2022-11-29T19:11:21.051Z,6.39
2022-11-29T19:13:51.978Z,6.45
2022-11-29T19:16:19.522Z,6.38
2022-11-29T19:18:45.990Z,6.35
2022-11-29T19:21:15.177Z,6.40
2022-11-29T19:23:43.642Z,6.50
2022-11-29T19:26:14.701Z,6.45
2022-11-29T19:28:43.489Z,6.45
2022-11-29T19:31:11.894Z,6.61
2022-11-29T19:33:40.012Z,6.82
2022-11-29T19:36:08.765Z,6.64
2022-11-29T19:38:36.525Z,6.29
2022-11-29T19:41:13.621Z,6.21
2022-11-29T19:43:40.169Z,6.26
2022-11-29T19:46:08.511Z,6.27
2022-11-29T19:48:35.075Z,6.41
2022-11-29T19:51:02.183Z,6.56
2022-11-29T19:53:29.594Z,6.61
2022-11-29T19:55:56.301Z,6.49
2022-11-29T19:58:22.966Z,6.43
2022-11-29T20:00:49.538Z,6.55
2022-11-29T20:03:16.208Z,6.62
2022-11-29T20:05:42.760Z,6.67
2022-11-29T20:08:09.346Z,6.66
2022-11-29T20:10:35.824Z,6.67
2022-11-29T20:13:02.602Z,6.66
2022-11-29T20:15:29.216Z,6.51
2022-11-29T20:17:55.794Z,6.45
2022-11-29T20:20:22.526Z,6.41
2022-11-29T20:22:48.997Z,6.43
2022-11-29T20:25:15.499Z,6.50
2022-11-29T20:27:42.022Z,6.39
2022-11-29T20:30:10.325Z,6.44
2022-11-29T20:32:37.057Z,6.53
2022-11-29T20:35:03.884Z,6.54
2022-11-29T20:37:43.459Z,6.28
2022-11-29T20:40:15.784Z,6.05
2022-11-29T20:43:03.242Z,5.84
2022-11-29T20:45:30.097Z,5.66
2022-11-29T20:48:17.174Z,5.51
2022-11-29T20:50:51.925Z,5.74
2022-11-29T20:53:18.269Z,5.76
2022-11-29T20:55:47.880Z,5.89
2022-11-29T20:58:15.381Z,5.89
2022-11-29T21:00:42.172Z,5.90
2022-11-29T21:03:08.684Z,5.89
2022-11-29T21:05:37.989Z,5.84
2022-11-29T21:08:04.744Z,5.82
2022-11-29T21:10:31.264Z,5.70
2022-11-29T21:12:58.008Z,5.69
2022-11-29T21:15:24.854Z,5.69
2022-11-29T21:17:51.709Z,5.73
2022-11-29T21:20:22.898Z,5.79
2022-11-29T21:23:19.157Z,5.84
2022-11-29T21:25:58.133Z,5.89
2022-11-29T21:28:32.038Z,5.75
2022-11-29T21:30:58.728Z,5.64
2022-11-29T21:33:25.562Z,5.66
2022-11-29T21:35:55.699Z,5.63
2022-11-29T21:38:25.079Z,5.66
2022-11-29T21:40:51.574Z,5.72
2022-11-29T21:43:18.118Z,5.74
2022-11-29T21:45:47.410Z,5.82
2022-11-29T21:48:32.856Z,5.83
2022-11-29T21:50:59.338Z,5.89
2022-11-29T21:53:26.038Z,5.91
2022-11-29T21:56:00.564Z,5.91
2022-11-29T21:58:29.270Z,5.81
2022-11-29T22:00:55.818Z,5.82
2022-11-29T22:03:22.388Z,5.79
2022-11-29T22:05:48.923Z,5.42
2022-11-29T22:08:15.467Z,5.13
2022-11-29T22:10:41.997Z,5.05
2022-11-29T22:13:08.538Z,5.11
2022-11-29T22:15:35.009Z,5.17
2022-11-29T22:18:01.478Z,5.18
2022-11-29T22:20:27.926Z,5.20
2022-11-29T22:22:58.538Z,5.28
2022-11-29T22:25:25.386Z,5.45
2022-11-29T22:27:51.849Z,5.59
2022-11-29T22:30:18.281Z,5.67
2022-11-29T22:32:44.719Z,5.70
2022-11-29T22:35:11.123Z,5.75
2022-11-29T22:37:37.577Z,5.77
2022-11-29T22:40:05.887Z,5.78
2022-11-29T22:42:32.480Z,5.75
2022-11-29T22:44:58.905Z,5.70
2022-11-29T22:47:25.389Z,5.61
2022-11-29T22:49:57.752Z,5.54
2022-11-29T22:52:24.172Z,5.63
2022-11-29T22:54:50.600Z,5.57
2022-11-29T22:57:17.084Z,5.63
2022-11-29T22:59:43.508Z,5.57
2022-11-29T23:02:09.958Z,5.61
2022-11-29T23:04:36.432Z,5.64
2022-11-29T23:07:02.883Z,5.61
2022-11-29T23:09:29.346Z,5.61
2022-11-29T23:11:56.204Z,5.49
2022-11-29T23:14:23.497Z,5.50
2022-11-29T23:16:50.463Z,5.62
2022-11-29T23:19:17.475Z,5.67
2022-11-29T23:21:45.835Z,5.69
2022-11-29T23:24:13.822Z,5.74
2022-11-29T23:26:43.241Z,5.75
2022-11-29T23:29:12.794Z,5.75
2022-11-29T23:31:39.540Z,5.80
2022-11-29T23:35:25.691Z,5.86
2022-11-29T23:37:52.100Z,5.86
2022-11-29T23:40:18.648Z,5.90
2022-11-29T23:42:47.172Z,5.93
2022-11-29T23:45:13.926Z,6.03
2022-11-29T23:47:40.309Z,6.05
2022-11-29T23:50:07.899Z,6.07
2022-11-29T23:52:34.437Z,6.02
2022-11-29T23:55:00.869Z,6.00
2022-11-29T23:57:29.637Z,5.76
2022-11-29T23:59:56.043Z,5.46
